createdAt,value
2023-01-05T00:01:53.646Z,1.40
2023-01-05T00:04:20.756Z,0.50
2023-01-05T00:06:47.844Z,1.40
2023-01-05T00:09:17.469Z,1.03
2023-01-05T00:12:02.990Z,0.63
2023-01-05T00:14:50.189Z,0.30
2023-01-05T00:17:38.033Z,2.63
2023-01-05T00:20:25.564Z,1.30
2023-01-05T00:22:54.131Z,3.57
2023-01-05T00:25:40.662Z,3.53
2023-01-05T00:28:07.733Z,1.70
2023-01-05T00:30:41.057Z,0.40
2023-01-05T00:33:09.594Z,0.97
2023-01-05T00:35:36.413Z,1.60
2023-01-05T00:38:03.300Z,2.00
2023-01-05T00:40:30.138Z,1.07
2023-01-05T00:42:57.183Z,1.40
2023-01-05T00:45:23.951Z,2.00
2023-01-05T00:47:52.095Z,0.20
2023-01-05T00:50:19.832Z,1.33
2023-01-05T00:52:47.109Z,2.27
2023-01-05T00:55:14.863Z,1.50
2023-01-05T00:57:42.413Z,0.43
2023-01-05T01:00:17.284Z,0.37
2023-01-05T01:02:44.479Z,2.80
2023-01-05T01:05:12.433Z,4.00
2023-01-05T01:07:39.243Z,4.73
2023-01-05T01:10:07.419Z,5.63
2023-01-05T01:12:34.811Z,0.93
2023-01-05T01:15:01.636Z,1.10
2023-01-05T01:17:28.551Z,1.93
2023-01-05T01:19:55.319Z,1.07
2023-01-05T01:22:22.115Z,0.90
2023-01-05T01:24:48.841Z,5.23
2023-01-05T01:27:15.689Z,2.80
2023-01-05T01:29:42.430Z,1.47
2023-01-05T01:32:27.724Z,5.40
2023-01-05T01:34:55.348Z,3.00
2023-01-05T01:37:22.276Z,3.47
2023-01-05T01:39:52.150Z,0.57
2023-01-05T01:42:21.372Z,0.20
2023-01-05T01:44:48.869Z,0.50
2023-01-05T01:47:32.079Z,2.33
2023-01-05T01:50:08.619Z,0.87
2023-01-05T01:52:35.935Z,0.80
2023-01-05T01:55:05.672Z,0.87
2023-01-05T01:57:33.928Z,3.90
2023-01-05T02:00:04.876Z,3.50
2023-01-05T02:02:32.993Z,0.77
2023-01-05T02:05:03.531Z,1.40
2023-01-05T02:07:33.995Z,1.77
2023-01-05T02:10:02.754Z,0.97
2023-01-05T02:13:02.397Z,2.73
2023-01-05T02:15:38.157Z,1.47
2023-01-05T02:18:19.124Z,2.87
2023-01-05T02:21:16.969Z,2.00
2023-01-05T02:24:09.036Z,3.63
2023-01-05T02:27:00.969Z,3.90
2023-01-05T02:29:52.095Z,1.50
2023-01-05T02:32:36.451Z,2.90
2023-01-05T02:35:57.678Z,1.13
2023-01-05T02:38:37.623Z,4.57
2023-01-05T02:41:15.579Z,0.47
2023-01-05T02:43:45.836Z,2.03
2023-01-05T02:46:12.689Z,2.83
2023-01-05T02:48:42.283Z,1.30
2023-01-05T02:51:19.490Z,3.13
2023-01-05T02:54:27.367Z,2.53
2023-01-05T02:57:08.572Z,1.23
2023-01-05T02:59:44.236Z,2.73
2023-01-05T03:02:17.407Z,1.50
2023-01-05T03:04:54.205Z,1.03
2023-01-05T03:07:30.155Z,1.30
2023-01-05T03:09:58.188Z,1.27
2023-01-05T03:12:54.193Z,7.00
2023-01-05T03:15:32.675Z,1.27
2023-01-05T03:18:06.326Z,4.43
2023-01-05T03:20:38.267Z,1.83
2023-01-05T03:23:42.301Z,0.30
2023-01-05T03:26:30.670Z,5.73
2023-01-05T03:29:22.227Z,2.90
2023-01-05T03:32:19.825Z,1.93
2023-01-05T03:35:34.255Z,1.50
2023-01-05T03:38:43.983Z,0.37
2023-01-05T03:41:32.155Z,2.10
2023-01-05T03:43:59.657Z,2.63
2023-01-05T03:46:31.322Z,1.23
2023-01-05T03:48:58.191Z,3.00
2023-01-05T03:51:27.732Z,2.47
2023-01-05T03:53:54.703Z,2.53
2023-01-05T03:56:21.469Z,0.63
2023-01-05T03:58:48.548Z,1.33
2023-01-05T04:01:15.961Z,5.00
2023-01-05T04:03:43.660Z,0.70
2023-01-05T04:06:11.534Z,1.23
2023-01-05T04:08:57.041Z,2.20
2023-01-05T04:11:44.487Z,1.40
2023-01-05T04:14:11.397Z,3.80
2023-01-05T04:16:38.691Z,4.80
2023-01-05T04:19:12.748Z,5.80
2023-01-05T04:21:39.769Z,2.23
2023-01-05T04:24:09.292Z,3.93
2023-01-05T04:26:39.546Z,2.67
2023-01-05T04:29:25.149Z,2.20
2023-01-05T04:31:53.834Z,3.13
2023-01-05T04:34:21.458Z,1.00
2023-01-05T04:36:53.745Z,3.00
2023-01-05T04:39:22.159Z,0.50
2023-01-05T04:41:50.538Z,0.80
2023-01-05T04:44:19.654Z,3.63
2023-01-05T04:46:48.009Z,2.33
2023-01-05T04:49:16.106Z,0.57
2023-01-05T04:51:42.927Z,1.77
2023-01-05T04:54:10.040Z,0.73
2023-01-05T04:56:57.076Z,1.27
2023-01-05T04:59:24.168Z,4.67
2023-01-05T05:01:52.603Z,3.50
2023-01-05T05:04:20.426Z,3.10
2023-01-05T05:06:49.392Z,0.70
2023-01-05T05:09:16.544Z,2.90
2023-01-05T05:11:43.301Z,1.53
2023-01-05T05:14:10.208Z,0.63
2023-01-05T05:16:38.882Z,1.20
2023-01-05T05:19:10.439Z,1.80
2023-01-05T05:21:37.612Z,5.97
2023-01-05T05:24:05.879Z,2.50
2023-01-05T05:26:36.451Z,2.00
2023-01-05T05:29:03.608Z,1.33
2023-01-05T05:31:30.508Z,1.20
2023-01-05T05:33:57.362Z,1.13
2023-01-05T05:36:24.138Z,2.37
2023-01-05T05:38:51.236Z,1.40
2023-01-05T05:41:17.977Z,2.20
2023-01-05T05:43:44.787Z,1.60
2023-01-05T05:46:11.674Z,1.97
2023-01-05T05:48:38.610Z,0.40
2023-01-05T05:51:05.565Z,2.23
2023-01-05T05:53:32.354Z,2.87
2023-01-05T05:55:59.186Z,2.83
2023-01-05T05:58:25.934Z,0.70
2023-01-05T06:00:58.013Z,2.23
2023-01-05T06:03:24.814Z,1.83
2023-01-05T06:05:52.018Z,6.80
2023-01-05T06:08:18.832Z,2.90
2023-01-05T06:10:45.602Z,0.87
2023-01-05T06:13:12.458Z,3.03
2023-01-05T06:15:39.168Z,2.83
2023-01-05T06:18:06.102Z,0.80
2023-01-05T06:20:32.836Z,0.27
2023-01-05T06:22:59.605Z,2.30
2023-01-05T06:25:26.342Z,2.10
2023-01-05T06:27:53.162Z,2.90
2023-01-05T06:33:04.206Z,2.67
2023-01-05T06:35:30.967Z,7.13
2023-01-05T06:37:57.723Z,0.23
2023-01-05T06:40:24.525Z,1.77
2023-01-05T06:42:51.267Z,1.80
2023-01-05T06:45:18.318Z,3.93
2023-01-05T06:47:45.166Z,0.97
2023-01-05T06:50:12.098Z,0.30
2023-01-05T06:52:40.299Z,0.97
2023-01-05T06:55:11.710Z,0.10
2023-01-05T06:57:38.543Z,4.53
2023-01-05T07:00:08.384Z,0.63
2023-01-05T07:02:35.327Z,0.20
2023-01-05T07:05:02.333Z,0.80
2023-01-05T07:07:29.301Z,0.97
2023-01-05T07:09:56.231Z,3.40
2023-01-05T07:12:23.077Z,0.67
2023-01-05T07:14:55.719Z,2.70
2023-01-05T07:17:24.386Z,0.93
2023-01-05T07:19:51.113Z,0.67
2023-01-05T07:22:18.065Z,0.40
2023-01-05T07:24:44.837Z,4.00
2023-01-05T07:27:11.647Z,1.37
2023-01-05T07:29:56.879Z,0.97
2023-01-05T07:32:23.725Z,3.30
2023-01-05T07:34:55.304Z,1.13
2023-01-05T07:37:25.285Z,1.23
2023-01-05T07:39:52.669Z,0.47
2023-01-05T07:42:19.763Z,1.90
2023-01-05T07:44:48.155Z,0.73
2023-01-05T07:47:14.947Z,1.70
2023-01-05T07:49:41.741Z,1.03
2023-01-05T07:52:08.541Z,2.43
2023-01-05T07:54:35.304Z,1.67
2023-01-05T07:57:02.134Z,3.43
2023-01-05T07:59:28.903Z,3.73
2023-01-05T08:01:55.836Z,1.80
2023-01-05T08:04:22.793Z,2.37
2023-01-05T08:06:49.615Z,3.00
2023-01-05T08:09:34.652Z,3.03
2023-01-05T08:12:01.474Z,1.17
2023-01-05T08:14:28.215Z,3.67
2023-01-05T08:16:55.060Z,1.33
2023-01-05T08:19:21.861Z,2.90
2023-01-05T08:21:48.724Z,1.73
2023-01-05T08:24:15.438Z,1.53
2023-01-05T08:26:42.335Z,1.70
2023-01-05T08:29:09.106Z,3.63
2023-01-05T08:31:37.611Z,3.10
2023-01-05T08:34:23.367Z,1.23
2023-01-05T08:36:50.266Z,2.20
2023-01-05T08:39:17.023Z,1.20
2023-01-05T08:41:43.791Z,1.20
2023-01-05T08:44:13.447Z,2.23
2023-01-05T08:46:40.478Z,4.50
2023-01-05T08:49:09.513Z,2.67
2023-01-05T08:51:37.437Z,1.40
2023-01-05T08:54:04.333Z,1.30
2023-01-05T08:56:38.303Z,2.67
2023-01-05T08:59:06.248Z,1.20
2023-01-05T09:04:17.613Z,1.87
2023-01-05T09:06:44.664Z,2.00
2023-01-05T09:09:11.410Z,2.33
2023-01-05T09:11:57.005Z,2.07
2023-01-05T09:14:23.829Z,2.00
2023-01-05T09:17:06.299Z,1.43
2023-01-05T09:19:34.096Z,3.23
2023-01-05T09:22:00.852Z,3.10
2023-01-05T09:24:46.611Z,3.77
2023-01-05T09:27:13.528Z,1.40
2023-01-05T09:29:40.248Z,2.10
2023-01-05T09:32:07.744Z,5.43
2023-01-05T09:34:34.560Z,1.43
2023-01-05T09:37:01.329Z,2.20
2023-01-05T09:39:28.123Z,3.53
2023-01-05T09:41:59.121Z,0.90
2023-01-05T09:44:29.430Z,3.30
2023-01-05T09:47:03.532Z,4.17
2023-01-05T09:49:32.639Z,1.27
2023-01-05T09:52:03.307Z,2.23
2023-01-05T09:54:34.716Z,1.73
2023-01-05T09:57:10.549Z,0.77
2023-01-05T10:00:03.993Z,1.23
2023-01-05T10:02:37.684Z,2.97
2023-01-05T10:05:06.142Z,0.77
2023-01-05T10:07:54.030Z,3.20
2023-01-05T10:10:50.681Z,1.27
2023-01-05T10:13:29.821Z,2.07
2023-01-05T10:15:56.657Z,2.47
2023-01-05T10:18:28.952Z,0.67
2023-01-05T10:21:54.779Z,1.70
2023-01-05T10:24:47.459Z,0.83
2023-01-05T10:27:32.533Z,2.33
2023-01-05T10:30:17.247Z,2.20
2023-01-05T10:33:14.922Z,1.20
2023-01-05T10:36:12.282Z,2.03
2023-01-05T10:42:22.286Z,2.53
2023-01-05T10:44:56.410Z,3.03
2023-01-05T10:47:29.972Z,2.43
2023-01-05T10:49:58.369Z,0.93
2023-01-05T10:52:25.230Z,2.17
2023-01-05T10:55:01.785Z,4.40
2023-01-05T10:57:47.418Z,1.33
2023-01-05T11:00:38.283Z,4.30
2023-01-05T11:03:08.300Z,3.13
2023-01-05T11:05:41.576Z,1.73
2023-01-05T11:08:18.532Z,3.40
2023-01-05T11:10:53.005Z,4.20
2023-01-05T11:13:50.927Z,1.50
2023-01-05T11:16:24.201Z,2.63
2023-01-05T11:18:57.401Z,3.13
2023-01-05T11:21:31.744Z,5.53
2023-01-05T11:23:59.735Z,2.73
2023-01-05T11:26:35.942Z,1.73
2023-01-05T11:29:02.689Z,4.00
2023-01-05T11:31:35.492Z,3.57
2023-01-05T11:34:34.638Z,2.87
2023-01-05T11:37:08.149Z,4.43
2023-01-05T11:39:47.518Z,2.90
2023-01-05T11:42:36.422Z,3.90
2023-01-05T11:45:17.252Z,5.17
2023-01-05T11:47:48.660Z,8.00
2023-01-05T11:50:28.761Z,3.53
2023-01-05T11:52:58.063Z,2.17
2023-01-05T11:55:34.481Z,2.90
2023-01-05T11:58:18.073Z,3.10
2023-01-05T12:01:02.742Z,1.20
2023-01-05T12:03:46.451Z,2.77
2023-01-05T12:06:29.115Z,3.50
2023-01-05T12:09:06.004Z,4.47
2023-01-05T12:11:55.795Z,2.50
2023-01-05T12:14:47.141Z,1.30
2023-01-05T12:17:15.890Z,2.40
2023-01-05T12:20:01.743Z,3.03
2023-01-05T12:22:49.852Z,1.17
2023-01-05T12:25:52.108Z,2.23
2023-01-05T12:28:41.514Z,1.30
2023-01-05T12:35:03.239Z,2.50
2023-01-05T12:37:49.248Z,1.53
2023-01-05T12:40:49.465Z,0.77
2023-01-05T12:43:19.525Z,0.87
2023-01-05T12:45:52.258Z,2.23
2023-01-05T12:48:37.775Z,1.90
2023-01-05T12:51:21.504Z,1.07
2023-01-05T12:54:27.179Z,1.67
2023-01-05T12:57:00.099Z,1.63
2023-01-05T12:59:50.502Z,3.43
2023-01-05T13:02:32.478Z,1.80
2023-01-05T13:05:11.571Z,4.10
2023-01-05T13:07:42.339Z,0.73
2023-01-05T13:10:39.434Z,1.73
2023-01-05T13:13:20.695Z,1.37
2023-01-05T13:16:28.958Z,1.10
2023-01-05T13:19:05.369Z,0.77
2023-01-05T13:21:33.278Z,3.13
2023-01-05T13:24:17.889Z,2.67
2023-01-05T13:26:44.690Z,4.67
2023-01-05T13:29:24.864Z,3.33
2023-01-05T13:32:12.902Z,5.43
2023-01-05T13:35:26.681Z,3.97
2023-01-05T13:38:07.313Z,2.90
2023-01-05T13:40:34.435Z,5.07
2023-01-05T13:43:04.291Z,3.70
2023-01-05T13:45:48.923Z,2.97
2023-01-05T13:48:33.818Z,6.07
2023-01-05T13:51:41.999Z,4.43
2023-01-05T13:54:22.264Z,6.73
2023-01-05T13:56:50.391Z,7.00
2023-01-05T13:59:35.803Z,9.87
2023-01-05T14:02:27.617Z,8.13
2023-01-05T14:04:54.760Z,11.10
2023-01-05T14:07:21.896Z,10.40
2023-01-05T14:09:53.949Z,10.63
2023-01-05T14:12:22.393Z,11.47
2023-01-05T14:15:12.383Z,10.47
2023-01-05T14:17:58.164Z,9.40
2023-01-05T14:20:32.704Z,9.93
2023-01-05T14:23:01.071Z,9.57
2023-01-05T14:25:40.034Z,8.30
2023-01-05T14:28:20.645Z,6.47
2023-01-05T14:30:50.028Z,6.17
2023-01-05T14:33:19.004Z,6.57
2023-01-05T14:35:46.510Z,7.20
2023-01-05T14:38:23.027Z,8.53
2023-01-05T14:40:56.289Z,4.43
2023-01-05T14:43:37.241Z,7.03
2023-01-05T14:46:11.710Z,3.90
2023-01-05T14:49:03.586Z,6.37
2023-01-05T14:51:32.301Z,4.20
2023-01-05T14:54:04.782Z,8.47
2023-01-05T14:56:37.022Z,3.77
2023-01-05T14:59:12.551Z,7.40
2023-01-05T15:01:54.431Z,7.20
2023-01-05T15:04:23.675Z,2.90
2023-01-05T15:07:06.389Z,7.27
2023-01-05T15:09:55.261Z,5.70
2023-01-05T15:13:07.984Z,3.60
2023-01-05T15:15:56.071Z,4.50
2023-01-05T15:18:57.849Z,11.70
2023-01-05T15:22:13.472Z,5.07
2023-01-05T15:25:07.728Z,5.60
2023-01-05T15:27:53.003Z,8.33
2023-01-05T15:30:31.899Z,9.80
2023-01-05T15:33:14.079Z,14.13
2023-01-05T15:35:54.207Z,11.83
2023-01-05T15:38:26.874Z,7.25
2023-01-05T15:41:16.084Z,8.30
2023-01-05T15:43:43.648Z,13.53
2023-01-05T15:46:11.456Z,10.87
2023-01-05T15:48:44.965Z,14.70
2023-01-05T15:51:26.348Z,7.63
2023-01-05T15:54:07.043Z,7.50
2023-01-05T15:56:36.657Z,13.73
2023-01-05T15:59:17.683Z,8.27
2023-01-05T16:01:44.715Z,14.57
2023-01-05T16:04:14.735Z,13.83
2023-01-05T16:06:45.406Z,9.83
2023-01-05T16:09:21.196Z,11.97
2023-01-05T16:11:50.177Z,12.55
2023-01-05T16:14:19.764Z,17.83
2023-01-05T16:16:54.569Z,12.45
2023-01-05T16:19:43.179Z,14.43
2023-01-05T16:22:16.320Z,14.05
2023-01-05T16:25:18.881Z,15.85
2023-01-05T16:27:49.880Z,18.88
2023-01-05T16:30:38.505Z,16.63
2023-01-05T16:33:25.651Z,13.02
2023-01-05T16:36:05.789Z,15.27
2023-01-05T16:38:33.400Z,23.77
2023-01-05T16:43:58.384Z,17.83
2023-01-05T16:46:35.405Z,19.08
2023-01-05T16:49:20.736Z,18.97
2023-01-05T16:51:47.739Z,24.33
2023-01-05T16:54:22.706Z,16.15
2023-01-05T16:56:58.571Z,21.25
2023-01-05T16:59:31.477Z,20.20
2023-01-05T17:01:58.395Z,21.58
2023-01-05T17:04:25.414Z,17.93
2023-01-05T17:06:53.411Z,22.83
2023-01-05T17:09:27.325Z,27.50
2023-01-05T17:12:14.011Z,23.85
2023-01-05T17:14:43.082Z,23.85
2023-01-05T17:17:13.707Z,28.23
2023-01-05T17:19:41.241Z,19.52
2023-01-05T17:22:11.750Z,17.13
2023-01-05T17:24:39.928Z,22.43
2023-01-05T17:27:06.678Z,19.30
2023-01-05T17:29:35.009Z,16.13
2023-01-05T17:32:02.183Z,15.43
2023-01-05T17:34:29.145Z,22.42
2023-01-05T17:36:59.212Z,14.67
2023-01-05T17:39:26.096Z,18.02
2023-01-05T17:41:52.855Z,16.33
2023-01-05T17:44:19.718Z,9.68
2023-01-05T17:46:47.725Z,21.85
2023-01-05T17:49:17.578Z,21.55
2023-01-05T17:51:44.746Z,21.52
2023-01-05T17:54:12.144Z,15.57
2023-01-05T17:56:39.160Z,15.32
2023-01-05T17:59:06.167Z,11.60
2023-01-05T18:01:36.100Z,9.63
2023-01-05T18:04:02.935Z,14.32
2023-01-05T18:06:29.917Z,12.57
2023-01-05T18:08:56.856Z,19.50
2023-01-05T18:11:23.631Z,13.75
2023-01-05T18:13:50.548Z,20.92
2023-01-05T18:16:17.347Z,13.60
2023-01-05T18:18:44.199Z,18.20
2023-01-05T18:21:11.048Z,26.17
2023-01-05T18:23:38.797Z,17.35
2023-01-05T18:26:08.293Z,17.27
2023-01-05T18:28:36.866Z,18.95
2023-01-05T18:31:14.615Z,13.55
2023-01-05T18:33:41.741Z,22.48
2023-01-05T18:36:10.455Z,15.90
2023-01-05T18:38:56.521Z,18.20
2023-01-05T18:41:24.856Z,14.15
2023-01-05T18:43:51.845Z,19.30
2023-01-05T18:46:18.668Z,18.60
2023-01-05T18:48:50.259Z,17.95
2023-01-05T18:51:17.648Z,13.57
2023-01-05T18:53:44.546Z,22.58
2023-01-05T18:56:13.026Z,23.85
2023-01-05T18:58:39.767Z,23.35
2023-01-05T19:01:11.823Z,18.75
2023-01-05T19:03:38.790Z,17.38
2023-01-05T19:06:18.277Z,16.23
2023-01-05T19:09:04.934Z,21.25
2023-01-05T19:11:32.071Z,19.33
2023-01-05T19:14:00.968Z,17.67
2023-01-05T19:16:29.266Z,22.33
2023-01-05T19:18:58.671Z,15.93
2023-01-05T19:21:26.562Z,15.60
2023-01-05T19:23:59.309Z,21.15
2023-01-05T19:26:31.621Z,18.40
2023-01-05T19:29:00.197Z,19.55
2023-01-05T19:31:49.105Z,19.05
2023-01-05T19:34:19.458Z,19.38
2023-01-05T19:36:47.379Z,23.88
2023-01-05T19:39:33.145Z,15.35
2023-01-05T19:41:59.921Z,19.13
2023-01-05T19:44:26.671Z,21.83
2023-01-05T19:46:54.224Z,18.85
2023-01-05T19:49:23.728Z,14.68
2023-01-05T19:51:51.774Z,16.48
2023-01-05T19:54:19.779Z,17.27
2023-01-05T19:56:46.658Z,17.65
2023-01-05T19:59:16.404Z,16.33
2023-01-05T20:01:43.911Z,10.55
2023-01-05T20:04:10.782Z,21.00
2023-01-05T20:06:39.383Z,12.82
2023-01-05T20:09:27.293Z,14.65
2023-01-05T20:11:59.463Z,15.57
2023-01-05T20:14:31.368Z,18.52
2023-01-05T20:17:03.580Z,16.60
2023-01-05T20:19:48.607Z,13.48
2023-01-05T20:22:15.539Z,13.85
2023-01-05T20:24:43.130Z,17.88
2023-01-05T20:27:15.544Z,11.77
2023-01-05T20:29:42.601Z,13.68
2023-01-05T20:32:18.591Z,11.85
2023-01-05T20:35:04.223Z,14.93
2023-01-05T20:37:32.257Z,12.27
2023-01-05T20:40:01.360Z,7.35
2023-01-05T20:42:29.322Z,6.13
2023-01-05T20:44:56.424Z,7.57
2023-01-05T20:47:23.200Z,9.05
2023-01-05T20:50:08.349Z,7.43
2023-01-05T20:52:35.181Z,5.68
2023-01-05T20:55:02.019Z,11.27
2023-01-05T21:00:15.669Z,8.20
2023-01-05T21:02:42.468Z,4.65
2023-01-05T21:05:11.776Z,9.05
2023-01-05T21:07:38.566Z,9.77
2023-01-05T21:10:05.556Z,10.30
2023-01-05T21:12:32.422Z,11.38
2023-01-05T21:14:59.275Z,7.80
2023-01-05T21:17:27.117Z,8.48
2023-01-05T21:19:53.847Z,6.70
2023-01-05T21:22:21.569Z,6.80
2023-01-05T21:24:48.287Z,3.97
2023-01-05T21:27:15.049Z,4.00
2023-01-05T21:29:42.575Z,5.07
2023-01-05T21:32:09.461Z,9.20
2023-01-05T21:34:36.252Z,11.25
2023-01-05T21:37:03.011Z,6.82
2023-01-05T21:39:29.820Z,3.45
2023-01-05T21:42:15.306Z,7.75
2023-01-05T21:44:42.293Z,5.85
2023-01-05T21:47:09.361Z,7.70
2023-01-05T21:49:36.398Z,5.45
2023-01-05T21:52:22.183Z,3.28
2023-01-05T21:55:07.774Z,9.80
2023-01-05T21:57:34.672Z,11.00
2023-01-05T22:00:01.412Z,8.20
2023-01-05T22:02:28.178Z,8.45
2023-01-05T22:04:54.960Z,5.72
2023-01-05T22:07:21.841Z,7.80
2023-01-05T22:09:48.583Z,6.18
2023-01-05T22:12:15.625Z,7.25
2023-01-05T22:14:42.510Z,9.32
2023-01-05T22:17:09.866Z,5.85
2023-01-05T22:19:37.241Z,4.22
2023-01-05T22:22:04.768Z,2.08
2023-01-05T22:24:31.654Z,4.68
2023-01-05T22:26:58.707Z,7.85
2023-01-05T22:29:44.163Z,5.57
2023-01-05T22:32:11.083Z,2.90
2023-01-05T22:34:43.645Z,2.58
2023-01-05T22:37:10.557Z,9.63
2023-01-05T22:39:37.289Z,6.35
2023-01-05T22:42:04.175Z,4.25
2023-01-05T22:44:31.140Z,8.75
2023-01-05T22:46:57.996Z,7.93
2023-01-05T22:49:24.814Z,5.38
2023-01-05T22:51:51.729Z,9.30
2023-01-05T22:54:18.504Z,9.38
2023-01-05T22:56:45.235Z,2.83
2023-01-05T22:59:12.050Z,2.80
2023-01-05T23:01:45.264Z,5.68
2023-01-05T23:04:12.571Z,4.90
2023-01-05T23:06:39.823Z,2.53
2023-01-05T23:09:09.377Z,5.68
2023-01-05T23:11:38.794Z,7.23
2023-01-05T23:14:08.951Z,7.53
2023-01-05T23:16:36.798Z,3.60
2023-01-05T23:19:05.553Z,4.80
2023-01-05T23:21:33.229Z,4.63
2023-01-05T23:24:00.032Z,8.30
2023-01-05T23:26:28.043Z,5.63
2023-01-05T23:28:55.131Z,7.67
2023-01-05T23:31:22.425Z,7.93
2023-01-05T23:33:49.790Z,5.30
2023-01-05T23:36:18.201Z,6.00
2023-01-05T23:38:45.514Z,8.40
2023-01-05T23:41:14.133Z,7.63
2023-01-05T23:43:42.966Z,4.65
2023-01-05T23:46:16.609Z,6.50
2023-01-05T23:48:43.984Z,5.63
2023-01-05T23:53:58.500Z,11.13
2023-01-05T23:56:28.940Z,5.07
2023-01-05T23:59:02.824Z,9.40
